sensor_id;sensor_type;location;lat;lon;timestamp;temperature;humidity
37594;DHT22;23441;50.856;6.076;2022-07-04T00:01:37;14.00;99.90
37594;DHT22;23441;50.856;6.076;2022-07-04T00:04:03;14.00;99.90
37594;DHT22;23441;50.856;6.076;2022-07-04T00:06:29;14.00;99.90
37594;DHT22;23441;50.856;6.076;2022-07-04T00:08:55;14.00;99.90
37594;DHT22;23441;50.856;6.076;2022-07-04T00:11:21;13.90;99.90
37594;DHT22;23441;50.856;6.076;2022-07-04T00:13:47;13.80;99.90
37594;DHT22;23441;50.856;6.076;2022-07-04T00:16:13;13.80;99.90
37594;DHT22;23441;50.856;6.076;2022-07-04T00:18:38;13.80;99.90
37594;DHT22;23441;50.856;6.076;2022-07-04T00:21:05;13.60;99.90
37594;DHT22;23441;50.856;6.076;2022-07-04T00:23:31;13.60;99.90
37594;DHT22;23441;50.856;6.076;2022-07-04T00:25:57;13.60;99.90
37594;DHT22;23441;50.856;6.076;2022-07-04T00:28:22;13.60;99.90
37594;DHT22;23441;50.856;6.076;2022-07-04T00:30:48;13.50;99.90
37594;DHT22;23441;50.856;6.076;2022-07-04T00:33:14;13.50;99.90
37594;DHT22;23441;50.856;6.076;2022-07-04T00:35:41;13.50;99.90
37594;DHT22;23441;50.856;6.076;2022-07-04T00:38:08;13.40;99.90
37594;DHT22;23441;50.856;6.076;2022-07-04T00:40:34;13.40;99.90
37594;DHT22;23441;50.856;6.076;2022-07-04T00:43:02;13.40;99.90
37594;DHT22;23441;50.856;6.076;2022-07-04T00:45:29;13.40;99.90
37594;DHT22;23441;50.856;6.076;2022-07-04T00:47:55;13.30;99.90
37594;DHT22;23441;50.856;6.076;2022-07-04T00:50:21;13.20;99.90
37594;DHT22;23441;50.856;6.076;2022-07-04T00:52:47;13.20;99.90
37594;DHT22;23441;50.856;6.076;2022-07-04T00:55:15;13.10;99.90
37594;DHT22;23441;50.856;6.076;2022-07-04T00:57:41;13.10;99.90
37594;DHT22;23441;50.856;6.076;2022-07-04T01:00:08;13.10;99.90
37594;DHT22;23441;50.856;6.076;2022-07-04T01:02:34;13.00;99.90
37594;DHT22;23441;50.856;6.076;2022-07-04T01:05:00;13.00;99.90
37594;DHT22;23441;50.856;6.076;2022-07-04T01:07:26;13.00;99.90
37594;DHT22;23441;50.856;6.076;2022-07-04T01:09:53;12.90;99.90
37594;DHT22;23441;50.856;6.076;2022-07-04T01:12:28;12.90;99.90
37594;DHT22;23441;50.856;6.076;2022-07-04T01:14:55;12.90;99.90
37594;DHT22;23441;50.856;6.076;2022-07-04T01:17:21;12.90;99.90
37594;DHT22;23441;50.856;6.076;2022-07-04T01:19:47;12.90;99.90
37594;DHT22;23441;50.856;6.076;2022-07-04T01:22:13;12.90;99.90
37594;DHT22;23441;50.856;6.076;2022-07-04T01:24:39;12.90;99.90
37594;DHT22;23441;50.856;6.076;2022-07-04T01:27:05;12.90;99.90
37594;DHT22;23441;50.856;6.076;2022-07-04T01:29:31;12.90;99.90
37594;DHT22;23441;50.856;6.076;2022-07-04T01:32:06;12.90;99.90
37594;DHT22;23441;50.856;6.076;2022-07-04T01:34:33;12.80;99.90
37594;DHT22;23441;50.856;6.076;2022-07-04T01:37:01;12.80;99.90
37594;DHT22;23441;50.856;6.076;2022-07-04T01:39:27;12.70;99.90
37594;DHT22;23441;50.856;6.076;2022-07-04T01:41:54;12.70;99.90
37594;DHT22;23441;50.856;6.076;2022-07-04T01:44:21;12.60;99.90
37594;DHT22;23441;50.856;6.076;2022-07-04T01:46:47;12.60;99.90
37594;DHT22;23441;50.856;6.076;2022-07-04T01:49:13;12.60;99.90
37594;DHT22;23441;50.856;6.076;2022-07-04T01:51:46;12.50;99.90
37594;DHT22;23441;50.856;6.076;2022-07-04T01:54:13;12.50;99.90
37594;DHT22;23441;50.856;6.076;2022-07-04T01:56:40;12.50;99.90
37594;DHT22;23441;50.856;6.076;2022-07-04T01:59:06;12.40;99.90
37594;DHT22;23441;50.856;6.076;2022-07-04T02:01:32;12.40;99.90
37594;DHT22;23441;50.856;6.076;2022-07-04T02:04:00;12.40;99.90
37594;DHT22;23441;50.856;6.076;2022-07-04T02:06:28;12.30;99.90
37594;DHT22;23441;50.856;6.076;2022-07-04T02:08:55;12.30;99.90
37594;DHT22;23441;50.856;6.076;2022-07-04T02:11:40;12.30;99.90
37594;DHT22;23441;50.856;6.076;2022-07-04T02:14:24;12.20;99.90
37594;DHT22;23441;50.856;6.076;2022-07-04T02:16:50;12.30;99.90
37594;DHT22;23441;50.856;6.076;2022-07-04T02:19:16;12.20;99.90
37594;DHT22;23441;50.856;6.076;2022-07-04T02:21:43;12.20;99.90
37594;DHT22;23441;50.856;6.076;2022-07-04T02:24:09;12.20;99.90
37594;DHT22;23441;50.856;6.076;2022-07-04T02:26:35;12.10;99.90
37594;DHT22;23441;50.856;6.076;2022-07-04T02:29:01;12.00;99.90
37594;DHT22;23441;50.856;6.076;2022-07-04T02:31:27;12.00;99.90
37594;DHT22;23441;50.856;6.076;2022-07-04T02:33:53;12.00;99.90
37594;DHT22;23441;50.856;6.076;2022-07-04T02:36:19;12.00;99.90
37594;DHT22;23441;50.856;6.076;2022-07-04T02:38:45;12.00;99.90
37594;DHT22;23441;50.856;6.076;2022-07-04T02:41:11;11.90;99.90
37594;DHT22;23441;50.856;6.076;2022-07-04T02:43:37;11.90;99.90
37594;DHT22;23441;50.856;6.076;2022-07-04T02:46:02;11.80;99.90
37594;DHT22;23441;50.856;6.076;2022-07-04T02:48:28;11.80;99.90
37594;DHT22;23441;50.856;6.076;2022-07-04T02:50:54;11.80;99.90
37594;DHT22;23441;50.856;6.076;2022-07-04T02:53:20;11.80;99.90
37594;DHT22;23441;50.856;6.076;2022-07-04T02:55:46;11.80;99.90
37594;DHT22;23441;50.856;6.076;2022-07-04T02:58:12;11.80;99.90
37594;DHT22;23441;50.856;6.076;2022-07-04T03:00:37;11.80;99.90
37594;DHT22;23441;50.856;6.076;2022-07-04T03:03:03;11.80;99.90
37594;DHT22;23441;50.856;6.076;2022-07-04T03:05:29;11.80;99.90
37594;DHT22;23441;50.856;6.076;2022-07-04T03:07:58;11.80;99.90
37594;DHT22;23441;50.856;6.076;2022-07-04T03:10:24;11.80;99.90
37594;DHT22;23441;50.856;6.076;2022-07-04T03:12:50;11.80;99.90
37594;DHT22;23441;50.856;6.076;2022-07-04T03:15:15;11.70;99.90
37594;DHT22;23441;50.856;6.076;2022-07-04T03:17:41;11.70;99.90
37594;DHT22;23441;50.856;6.076;2022-07-04T03:20:08;11.70;99.90
37594;DHT22;23441;50.856;6.076;2022-07-04T03:22:34;11.70;99.90
37594;DHT22;23441;50.856;6.076;2022-07-04T03:25:00;11.70;99.90
37594;DHT22;23441;50.856;6.076;2022-07-04T03:27:26;11.70;99.90
37594;DHT22;23441;50.856;6.076;2022-07-04T03:29:52;11.60;99.90
37594;DHT22;23441;50.856;6.076;2022-07-04T03:32:18;11.70;99.90
37594;DHT22;23441;50.856;6.076;2022-07-04T03:34:44;11.70;99.90
37594;DHT22;23441;50.856;6.076;2022-07-04T03:37:10;11.70;99.90
37594;DHT22;23441;50.856;6.076;2022-07-04T03:39:36;11.70;99.90
37594;DHT22;23441;50.856;6.076;2022-07-04T03:42:02;11.70;99.90
37594;DHT22;23441;50.856;6.076;2022-07-04T03:44:28;11.70;99.90
37594;DHT22;23441;50.856;6.076;2022-07-04T03:46:54;11.70;99.90
37594;DHT22;23441;50.856;6.076;2022-07-04T03:49:19;11.70;99.90
37594;DHT22;23441;50.856;6.076;2022-07-04T03:51:45;11.60;99.90
37594;DHT22;23441;50.856;6.076;2022-07-04T03:54:11;11.70;99.90
37594;DHT22;23441;50.856;6.076;2022-07-04T03:56:37;11.70;99.90
37594;DHT22;23441;50.856;6.076;2022-07-04T03:59:03;11.70;99.90
37594;DHT22;23441;50.856;6.076;2022-07-04T04:01:29;11.80;99.90
37594;DHT22;23441;50.856;6.076;2022-07-04T04:03:56;11.70;99.90
37594;DHT22;23441;50.856;6.076;2022-07-04T04:06:40;11.80;99.90
37594;DHT22;23441;50.856;6.076;2022-07-04T04:09:06;11.80;99.90
37594;DHT22;23441;50.856;6.076;2022-07-04T04:11:32;11.80;99.90
37594;DHT22;23441;50.856;6.076;2022-07-04T04:13:58;11.80;99.90
37594;DHT22;23441;50.856;6.076;2022-07-04T04:16:23;11.90;99.90
37594;DHT22;23441;50.856;6.076;2022-07-04T04:18:49;11.90;99.90
37594;DHT22;23441;50.856;6.076;2022-07-04T04:21:15;12.00;99.90
37594;DHT22;23441;50.856;6.076;2022-07-04T04:23:41;11.90;99.90
37594;DHT22;23441;50.856;6.076;2022-07-04T04:26:07;11.90;99.90
37594;DHT22;23441;50.856;6.076;2022-07-04T04:28:33;12.00;99.90
37594;DHT22;23441;50.856;6.076;2022-07-04T04:30:58;12.00;99.90
37594;DHT22;23441;50.856;6.076;2022-07-04T04:33:24;12.00;99.90
37594;DHT22;23441;50.856;6.076;2022-07-04T04:35:50;12.10;99.90
37594;DHT22;23441;50.856;6.076;2022-07-04T04:38:16;12.10;99.90
37594;DHT22;23441;50.856;6.076;2022-07-04T04:40:42;12.20;99.90
37594;DHT22;23441;50.856;6.076;2022-07-04T04:43:08;12.20;99.90
37594;DHT22;23441;50.856;6.076;2022-07-04T04:45:34;12.20;99.90
37594;DHT22;23441;50.856;6.076;2022-07-04T04:48:00;12.30;99.90
37594;DHT22;23441;50.856;6.076;2022-07-04T04:50:26;12.40;99.90
37594;DHT22;23441;50.856;6.076;2022-07-04T04:52:52;12.50;99.90
37594;DHT22;23441;50.856;6.076;2022-07-04T04:55:17;12.60;99.90
37594;DHT22;23441;50.856;6.076;2022-07-04T04:57:44;12.70;99.90
37594;DHT22;23441;50.856;6.076;2022-07-04T05:00:11;12.80;99.90
37594;DHT22;23441;50.856;6.076;2022-07-04T05:02:37;12.80;99.90
37594;DHT22;23441;50.856;6.076;2022-07-04T05:05:03;12.90;99.90
37594;DHT22;23441;50.856;6.076;2022-07-04T05:07:29;13.00;99.90
37594;DHT22;23441;50.856;6.076;2022-07-04T05:09:55;13.10;99.90
37594;DHT22;23441;50.856;6.076;2022-07-04T05:12:25;13.10;99.90
37594;DHT22;23441;50.856;6.076;2022-07-04T05:14:52;13.20;99.90
37594;DHT22;23441;50.856;6.076;2022-07-04T05:17:19;13.30;99.90
37594;DHT22;23441;50.856;6.076;2022-07-04T05:19:46;13.40;99.90
37594;DHT22;23441;50.856;6.076;2022-07-04T05:22:12;13.50;99.90
37594;DHT22;23441;50.856;6.076;2022-07-04T05:24:37;13.70;99.90
37594;DHT22;23441;50.856;6.076;2022-07-04T05:27:07;14.30;99.90
37594;DHT22;23441;50.856;6.076;2022-07-04T05:29:33;15.80;99.90
37594;DHT22;23441;50.856;6.076;2022-07-04T05:31:59;17.60;99.90
37594;DHT22;23441;50.856;6.076;2022-07-04T05:34:25;19.20;99.90
37594;DHT22;23441;50.856;6.076;2022-07-04T05:36:51;20.40;99.90
37594;DHT22;23441;50.856;6.076;2022-07-04T05:39:17;21.60;99.90
37594;DHT22;23441;50.856;6.076;2022-07-04T05:41:43;22.00;99.90
37594;DHT22;23441;50.856;6.076;2022-07-04T05:44:09;21.70;99.90
37594;DHT22;23441;50.856;6.076;2022-07-04T05:46:35;21.10;99.90
37594;DHT22;23441;50.856;6.076;2022-07-04T05:49:01;20.50;99.90
37594;DHT22;23441;50.856;6.076;2022-07-04T05:51:27;20.10;99.90
37594;DHT22;23441;50.856;6.076;2022-07-04T05:53:54;20.00;99.90
37594;DHT22;23441;50.856;6.076;2022-07-04T05:56:20;20.00;99.90
37594;DHT22;23441;50.856;6.076;2022-07-04T05:58:45;20.20;99.90
37594;DHT22;23441;50.856;6.076;2022-07-04T06:01:11;20.20;99.90
37594;DHT22;23441;50.856;6.076;2022-07-04T06:03:37;20.30;99.90
37594;DHT22;23441;50.856;6.076;2022-07-04T06:06:04;21.20;99.90
37594;DHT22;23441;50.856;6.076;2022-07-04T06:08:30;22.70;99.90
37594;DHT22;23441;50.856;6.076;2022-07-04T06:10:57;23.50;99.90
37594;DHT22;23441;50.856;6.076;2022-07-04T06:13:22;23.70;99.80
37594;DHT22;23441;50.856;6.076;2022-07-04T06:15:48;24.40;98.60
37594;DHT22;23441;50.856;6.076;2022-07-04T06:18:14;25.30;96.50
37594;DHT22;23441;50.856;6.076;2022-07-04T06:20:41;25.90;94.60
37594;DHT22;23441;50.856;6.076;2022-07-04T06:23:07;26.50;92.90
37594;DHT22;23441;50.856;6.076;2022-07-04T06:25:34;26.90;92.20
37594;DHT22;23441;50.856;6.076;2022-07-04T06:28:01;27.40;92.00
37594;DHT22;23441;50.856;6.076;2022-07-04T06:30:27;27.60;90.10
37594;DHT22;23441;50.856;6.076;2022-07-04T06:32:55;27.00;89.50
37594;DHT22;23441;50.856;6.076;2022-07-04T06:35:26;27.70;90.30
37594;DHT22;23441;50.856;6.076;2022-07-04T06:38:32;27.60;85.80
37594;DHT22;23441;50.856;6.076;2022-07-04T06:40:59;28.10;86.40
37594;DHT22;23441;50.856;6.076;2022-07-04T06:43:25;27.90;85.70
37594;DHT22;23441;50.856;6.076;2022-07-04T06:45:52;28.70;82.70
37594;DHT22;23441;50.856;6.076;2022-07-04T06:48:18;27.30;85.80
37594;DHT22;23441;50.856;6.076;2022-07-04T06:50:45;28.20;86.30
37594;DHT22;23441;50.856;6.076;2022-07-04T06:53:11;29.00;86.00
37594;DHT22;23441;50.856;6.076;2022-07-04T06:55:41;28.80;83.10
37594;DHT22;23441;50.856;6.076;2022-07-04T06:58:08;29.00;84.90
37594;DHT22;23441;50.856;6.076;2022-07-04T07:00:35;29.60;83.50
37594;DHT22;23441;50.856;6.076;2022-07-04T07:03:02;30.10;83.60
37594;DHT22;23441;50.856;6.076;2022-07-04T07:05:29;30.90;80.20
37594;DHT22;23441;50.856;6.076;2022-07-04T07:07:55;30.30;79.00
37594;DHT22;23441;50.856;6.076;2022-07-04T07:10:21;30.30;77.50
37594;DHT22;23441;50.856;6.076;2022-07-04T07:12:48;30.20;79.70
37594;DHT22;23441;50.856;6.076;2022-07-04T07:15:14;30.10;77.20
37594;DHT22;23441;50.856;6.076;2022-07-04T07:17:42;29.50;81.10
37594;DHT22;23441;50.856;6.076;2022-07-04T07:20:08;29.60;76.60
37594;DHT22;23441;50.856;6.076;2022-07-04T07:22:35;30.20;77.90
37594;DHT22;23441;50.856;6.076;2022-07-04T07:25:01;30.80;78.80
37594;DHT22;23441;50.856;6.076;2022-07-04T07:27:27;30.40;76.50
37594;DHT22;23441;50.856;6.076;2022-07-04T07:29:53;30.90;75.00
37594;DHT22;23441;50.856;6.076;2022-07-04T07:32:19;30.40;74.30
37594;DHT22;23441;50.856;6.076;2022-07-04T07:34:45;27.60;76.50
37594;DHT22;23441;50.856;6.076;2022-07-04T07:37:11;28.40;78.10
37594;DHT22;23441;50.856;6.076;2022-07-04T07:39:37;28.70;77.40
37594;DHT22;23441;50.856;6.076;2022-07-04T07:42:03;29.30;78.50
37594;DHT22;23441;50.856;6.076;2022-07-04T07:44:29;29.80;76.00
37594;DHT22;23441;50.856;6.076;2022-07-04T07:46:55;29.20;78.00
37594;DHT22;23441;50.856;6.076;2022-07-04T07:49:21;29.00;77.10
37594;DHT22;23441;50.856;6.076;2022-07-04T07:51:47;30.80;75.00
37594;DHT22;23441;50.856;6.076;2022-07-04T07:54:13;29.10;76.80
37594;DHT22;23441;50.856;6.076;2022-07-04T07:56:39;29.50;75.90
37594;DHT22;23441;50.856;6.076;2022-07-04T07:59:05;28.60;77.40
37594;DHT22;23441;50.856;6.076;2022-07-04T08:01:31;28.60;78.30
37594;DHT22;23441;50.856;6.076;2022-07-04T08:03:57;29.50;75.70
37594;DHT22;23441;50.856;6.076;2022-07-04T08:06:41;28.00;79.00
37594;DHT22;23441;50.856;6.076;2022-07-04T08:09:07;29.40;79.30
37594;DHT22;23441;50.856;6.076;2022-07-04T08:11:34;28.70;78.10
37594;DHT22;23441;50.856;6.076;2022-07-04T08:14:00;30.50;76.90
37594;DHT22;23441;50.856;6.076;2022-07-04T08:16:26;31.30;75.70
37594;DHT22;23441;50.856;6.076;2022-07-04T08:18:52;30.00;77.60
37594;DHT22;23441;50.856;6.076;2022-07-04T08:21:17;30.60;76.80
37594;DHT22;23441;50.856;6.076;2022-07-04T08:23:43;31.30;75.10
37594;DHT22;23441;50.856;6.076;2022-07-04T08:26:09;31.00;74.50
37594;DHT22;23441;50.856;6.076;2022-07-04T08:28:35;29.80;76.20
37594;DHT22;23441;50.856;6.076;2022-07-04T08:31:01;30.40;76.60
37594;DHT22;23441;50.856;6.076;2022-07-04T08:33:27;31.00;74.40
37594;DHT22;23441;50.856;6.076;2022-07-04T08:35:53;31.30;75.90
37594;DHT22;23441;50.856;6.076;2022-07-04T08:38:19;31.50;75.00
37594;DHT22;23441;50.856;6.076;2022-07-04T08:40:46;30.90;73.10
37594;DHT22;23441;50.856;6.076;2022-07-04T08:43:14;30.60;74.30
37594;DHT22;23441;50.856;6.076;2022-07-04T08:45:41;30.60;72.30
37594;DHT22;23441;50.856;6.076;2022-07-04T08:48:09;31.20;73.90
37594;DHT22;23441;50.856;6.076;2022-07-04T08:50:43;30.60;71.80
37594;DHT22;23441;50.856;6.076;2022-07-04T08:53:11;30.10;71.80
37594;DHT22;23441;50.856;6.076;2022-07-04T08:55:40;27.90;73.10
37594;DHT22;23441;50.856;6.076;2022-07-04T08:58:25;25.00;77.40
37594;DHT22;23441;50.856;6.076;2022-07-04T09:00:53;26.30;80.20
37594;DHT22;23441;50.856;6.076;2022-07-04T09:03:20;27.00;81.60
37594;DHT22;23441;50.856;6.076;2022-07-04T09:05:47;28.00;78.30
37594;DHT22;23441;50.856;6.076;2022-07-04T09:08:13;29.20;77.70
37594;DHT22;23441;50.856;6.076;2022-07-04T09:10:39;28.30;73.70
37594;DHT22;23441;50.856;6.076;2022-07-04T09:13:06;29.30;75.60
37594;DHT22;23441;50.856;6.076;2022-07-04T09:15:33;29.40;75.40
37594;DHT22;23441;50.856;6.076;2022-07-04T09:18:00;29.40;74.90
37594;DHT22;23441;50.856;6.076;2022-07-04T09:20:28;29.60;75.00
37594;DHT22;23441;50.856;6.076;2022-07-04T09:22:56;30.20;75.40
37594;DHT22;23441;50.856;6.076;2022-07-04T09:25:25;30.00;74.30
37594;DHT22;23441;50.856;6.076;2022-07-04T09:27:53;30.40;72.50
37594;DHT22;23441;50.856;6.076;2022-07-04T09:30:26;30.70;70.10
37594;DHT22;23441;50.856;6.076;2022-07-04T09:32:57;29.00;74.40
37594;DHT22;23441;50.856;6.076;2022-07-04T09:35:29;29.30;72.00
37594;DHT22;23441;50.856;6.076;2022-07-04T09:38:03;27.90;72.90
37594;DHT22;23441;50.856;6.076;2022-07-04T09:40:36;28.80;74.50
37594;DHT22;23441;50.856;6.076;2022-07-04T09:43:24;29.20;73.90
37594;DHT22;23441;50.856;6.076;2022-07-04T09:45:58;28.50;73.40
37594;DHT22;23441;50.856;6.076;2022-07-04T09:48:25;27.70;74.90
37594;DHT22;23441;50.856;6.076;2022-07-04T09:50:52;26.20;76.80
37594;DHT22;23441;50.856;6.076;2022-07-04T09:53:18;24.80;75.70
37594;DHT22;23441;50.856;6.076;2022-07-04T09:55:44;24.30;78.40
37594;DHT22;23441;50.856;6.076;2022-07-04T09:58:15;24.40;80.70
37594;DHT22;23441;50.856;6.076;2022-07-04T10:00:43;24.70;78.30
37594;DHT22;23441;50.856;6.076;2022-07-04T10:03:30;24.50;84.10
37594;DHT22;23441;50.856;6.076;2022-07-04T10:06:03;25.80;79.50
37594;DHT22;23441;50.856;6.076;2022-07-04T10:08:33;26.30;79.80
37594;DHT22;23441;50.856;6.076;2022-07-04T10:11:01;26.70;74.30
37594;DHT22;23441;50.856;6.076;2022-07-04T10:13:28;27.10;77.90
37594;DHT22;23441;50.856;6.076;2022-07-04T10:15:53;27.00;74.30
37594;DHT22;23441;50.856;6.076;2022-07-04T10:18:21;26.40;74.40
37594;DHT22;23441;50.856;6.076;2022-07-04T10:20:49;26.50;76.50
37594;DHT22;23441;50.856;6.076;2022-07-04T10:23:16;26.10;75.10
37594;DHT22;23441;50.856;6.076;2022-07-04T10:25:46;25.50;75.70
37594;DHT22;23441;50.856;6.076;2022-07-04T10:28:13;24.80;77.20
37594;DHT22;23441;50.856;6.076;2022-07-04T10:30:40;24.40;76.70
37594;DHT22;23441;50.856;6.076;2022-07-04T10:33:11;25.20;77.40
37594;DHT22;23441;50.856;6.076;2022-07-04T10:38:29;25.50;75.60
37594;DHT22;23441;50.856;6.076;2022-07-04T10:40:57;25.60;76.70
37594;DHT22;23441;50.856;6.076;2022-07-04T10:48:32;25.90;75.90
37594;DHT22;23441;50.856;6.076;2022-07-04T10:50:59;25.00;77.40
37594;DHT22;23441;50.856;6.076;2022-07-04T10:53:27;25.20;77.00
37594;DHT22;23441;50.856;6.076;2022-07-04T10:55:59;25.20;78.10
37594;DHT22;23441;50.856;6.076;2022-07-04T10:58:50;24.60;77.40
37594;DHT22;23441;50.856;6.076;2022-07-04T11:01:17;24.40;80.90
37594;DHT22;23441;50.856;6.076;2022-07-04T11:03:51;24.10;81.00
37594;DHT22;23441;50.856;6.076;2022-07-04T11:09:16;24.80;80.70
37594;DHT22;23441;50.856;6.076;2022-07-04T11:12:02;24.50;78.10
37594;DHT22;23441;50.856;6.076;2022-07-04T11:17:05;25.10;78.80
37594;DHT22;23441;50.856;6.076;2022-07-04T11:19:36;25.20;79.80
37594;DHT22;23441;50.856;6.076;2022-07-04T11:22:04;25.80;83.90
37594;DHT22;23441;50.856;6.076;2022-07-04T11:24:34;25.70;77.10
37594;DHT22;23441;50.856;6.076;2022-07-04T11:27:01;25.50;76.10
37594;DHT22;23441;50.856;6.076;2022-07-04T11:29:28;25.70;77.70
37594;DHT22;23441;50.856;6.076;2022-07-04T11:31:56;25.70;78.90
37594;DHT22;23441;50.856;6.076;2022-07-04T11:34:23;25.90;76.50
37594;DHT22;23441;50.856;6.076;2022-07-04T11:36:51;25.70;74.20
37594;DHT22;23441;50.856;6.076;2022-07-04T11:39:19;25.40;74.90
37594;DHT22;23441;50.856;6.076;2022-07-04T11:41:51;25.40;76.90
37594;DHT22;23441;50.856;6.076;2022-07-04T11:44:39;25.80;80.40
37594;DHT22;23441;50.856;6.076;2022-07-04T11:47:21;24.60;80.50
37594;DHT22;23441;50.856;6.076;2022-07-04T11:49:55;25.50;82.10
37594;DHT22;23441;50.856;6.076;2022-07-04T11:52:27;25.60;75.10
37594;DHT22;23441;50.856;6.076;2022-07-04T11:54:55;25.80;77.30
37594;DHT22;23441;50.856;6.076;2022-07-04T11:59:55;24.70;75.30
37594;DHT22;23441;50.856;6.076;2022-07-04T12:02:46;25.50;79.30
37594;DHT22;23441;50.856;6.076;2022-07-04T12:05:13;25.70;76.60
37594;DHT22;23441;50.856;6.076;2022-07-04T12:07:42;25.90;74.20
37594;DHT22;23441;50.856;6.076;2022-07-04T12:10:14;26.10;74.30
37594;DHT22;23441;50.856;6.076;2022-07-04T12:15:25;25.90;75.00
37594;DHT22;23441;50.856;6.076;2022-07-04T12:18:04;26.00;76.70
37594;DHT22;23441;50.856;6.076;2022-07-04T12:20:32;26.50;75.10
37594;DHT22;23441;50.856;6.076;2022-07-04T12:23:00;26.20;76.40
37594;DHT22;23441;50.856;6.076;2022-07-04T12:25:34;26.10;76.00
37594;DHT22;23441;50.856;6.076;2022-07-04T12:28:10;25.40;75.40
37594;DHT22;23441;50.856;6.076;2022-07-04T12:30:58;25.00;76.50
37594;DHT22;23441;50.856;6.076;2022-07-04T12:33:27;25.30;75.20
37594;DHT22;23441;50.856;6.076;2022-07-04T12:35:58;25.50;74.70
37594;DHT22;23441;50.856;6.076;2022-07-04T12:40:59;26.40;74.10
37594;DHT22;23441;50.856;6.076;2022-07-04T12:43:44;25.60;79.40
37594;DHT22;23441;50.856;6.076;2022-07-04T12:46:15;25.70;76.90
37594;DHT22;23441;50.856;6.076;2022-07-04T12:48:53;25.70;75.20
37594;DHT22;23441;50.856;6.076;2022-07-04T12:51:40;25.90;78.30
37594;DHT22;23441;50.856;6.076;2022-07-04T12:54:08;26.60;77.60
37594;DHT22;23441;50.856;6.076;2022-07-04T12:56:38;26.10;76.30
37594;DHT22;23441;50.856;6.076;2022-07-04T12:59:15;25.00;76.40
37594;DHT22;23441;50.856;6.076;2022-07-04T13:01:44;24.40;80.20
37594;DHT22;23441;50.856;6.076;2022-07-04T13:04:14;25.50;79.10
37594;DHT22;23441;50.856;6.076;2022-07-04T13:06:41;25.30;76.30
37594;DHT22;23441;50.856;6.076;2022-07-04T13:09:07;25.20;79.00
37594;DHT22;23441;50.856;6.076;2022-07-04T13:11:34;25.50;75.50
37594;DHT22;23441;50.856;6.076;2022-07-04T13:14:39;25.30;73.90
37594;DHT22;23441;50.856;6.076;2022-07-04T13:17:05;24.50;76.80
37594;DHT22;23441;50.856;6.076;2022-07-04T13:19:31;24.80;78.10
37594;DHT22;23441;50.856;6.076;2022-07-04T13:21:57;24.70;78.20
37594;DHT22;23441;50.856;6.076;2022-07-04T13:24:23;24.70;75.40
37594;DHT22;23441;50.856;6.076;2022-07-04T13:26:49;24.40;75.60
37594;DHT22;23441;50.856;6.076;2022-07-04T13:29:15;23.90;76.40
37594;DHT22;23441;50.856;6.076;2022-07-04T13:31:40;23.60;79.60
37594;DHT22;23441;50.856;6.076;2022-07-04T13:34:06;23.80;77.40
37594;DHT22;23441;50.856;6.076;2022-07-04T13:36:32;23.60;79.50
37594;DHT22;23441;50.856;6.076;2022-07-04T13:38:58;23.60;77.80
37594;DHT22;23441;50.856;6.076;2022-07-04T13:41:24;23.50;79.20
37594;DHT22;23441;50.856;6.076;2022-07-04T13:43:51;23.30;79.00
37594;DHT22;23441;50.856;6.076;2022-07-04T13:46:17;23.30;79.80
37594;DHT22;23441;50.856;6.076;2022-07-04T13:48:43;23.70;79.20
37594;DHT22;23441;50.856;6.076;2022-07-04T13:51:08;24.50;78.80
37594;DHT22;23441;50.856;6.076;2022-07-04T13:53:34;25.30;76.50
37594;DHT22;23441;50.856;6.076;2022-07-04T13:56:02;25.50;77.00
37594;DHT22;23441;50.856;6.076;2022-07-04T13:58:29;25.40;77.80
37594;DHT22;23441;50.856;6.076;2022-07-04T14:00:56;25.40;78.50
37594;DHT22;23441;50.856;6.076;2022-07-04T14:03:21;25.50;76.20
37594;DHT22;23441;50.856;6.076;2022-07-04T14:05:47;25.80;75.70
37594;DHT22;23441;50.856;6.076;2022-07-04T14:08:14;25.80;74.40
37594;DHT22;23441;50.856;6.076;2022-07-04T14:10:39;25.50;75.30
37594;DHT22;23441;50.856;6.076;2022-07-04T14:13:05;25.50;75.10
37594;DHT22;23441;50.856;6.076;2022-07-04T14:15:31;25.70;77.30
37594;DHT22;23441;50.856;6.076;2022-07-04T14:17:57;25.10;78.60
37594;DHT22;23441;50.856;6.076;2022-07-04T14:20:23;25.50;76.40
37594;DHT22;23441;50.856;6.076;2022-07-04T14:22:49;25.50;74.80
37594;DHT22;23441;50.856;6.076;2022-07-04T14:25:15;25.50;74.50
37594;DHT22;23441;50.856;6.076;2022-07-04T14:27:41;25.40;75.10
37594;DHT22;23441;50.856;6.076;2022-07-04T14:30:07;25.00;77.00
37594;DHT22;23441;50.856;6.076;2022-07-04T14:32:34;25.20;79.80
37594;DHT22;23441;50.856;6.076;2022-07-04T14:35:01;25.70;80.10
37594;DHT22;23441;50.856;6.076;2022-07-04T14:37:27;26.20;77.10
37594;DHT22;23441;50.856;6.076;2022-07-04T14:39:53;26.30;76.90
37594;DHT22;23441;50.856;6.076;2022-07-04T14:42:19;26.50;75.70
37594;DHT22;23441;50.856;6.076;2022-07-04T14:44:46;26.60;74.00
37594;DHT22;23441;50.856;6.076;2022-07-04T14:47:12;26.50;71.80
37594;DHT22;23441;50.856;6.076;2022-07-04T14:49:38;27.00;75.00
37594;DHT22;23441;50.856;6.076;2022-07-04T14:52:04;27.10;73.10
37594;DHT22;23441;50.856;6.076;2022-07-04T14:54:30;26.70;69.90
37594;DHT22;23441;50.856;6.076;2022-07-04T14:56:56;25.90;71.90
37594;DHT22;23441;50.856;6.076;2022-07-04T14:59:24;25.70;73.50
37594;DHT22;23441;50.856;6.076;2022-07-04T15:01:50;25.70;71.90
37594;DHT22;23441;50.856;6.076;2022-07-04T15:04:17;25.30;72.50
37594;DHT22;23441;50.856;6.076;2022-07-04T15:06:43;25.10;72.70
37594;DHT22;23441;50.856;6.076;2022-07-04T15:09:10;25.40;74.20
37594;DHT22;23441;50.856;6.076;2022-07-04T15:11:36;25.90;74.10
37594;DHT22;23441;50.856;6.076;2022-07-04T15:14:02;25.90;75.40
37594;DHT22;23441;50.856;6.076;2022-07-04T15:16:28;25.70;72.80
37594;DHT22;23441;50.856;6.076;2022-07-04T15:18:54;25.30;76.40
37594;DHT22;23441;50.856;6.076;2022-07-04T15:21:20;25.90;72.60
37594;DHT22;23441;50.856;6.076;2022-07-04T15:24:05;25.50;72.30
37594;DHT22;23441;50.856;6.076;2022-07-04T15:26:46;26.00;71.70
37594;DHT22;23441;50.856;6.076;2022-07-04T15:29:15;25.90;72.90
37594;DHT22;23441;50.856;6.076;2022-07-04T15:31:43;25.20;71.90
37594;DHT22;23441;50.856;6.076;2022-07-04T15:34:11;25.50;73.50
37594;DHT22;23441;50.856;6.076;2022-07-04T15:36:38;25.30;71.60
37594;DHT22;23441;50.856;6.076;2022-07-04T15:39:15;25.50;75.70
37594;DHT22;23441;50.856;6.076;2022-07-04T15:41:43;25.30;71.90
37594;DHT22;23441;50.856;6.076;2022-07-04T15:44:10;25.90;77.30
37594;DHT22;23441;50.856;6.076;2022-07-04T15:46:36;25.90;71.40
37594;DHT22;23441;50.856;6.076;2022-07-04T15:49:22;26.10;73.30
37594;DHT22;23441;50.856;6.076;2022-07-04T15:51:48;25.40;72.80
37594;DHT22;23441;50.856;6.076;2022-07-04T15:54:14;25.80;72.20
37594;DHT22;23441;50.856;6.076;2022-07-04T15:56:40;26.20;71.50